Flight Track Log - Related Links

Times and Time Zones

All times are in EDT time to prevent confusion due to time zone crossing. See the GLA65P flight status page for this flight to view local times or setup timezone preferences in your user account.

Time Position Orientation Groundspeed Altitude Reporting Facility
EDT Latitude Longitude Course Direction KTS MPH feet Rate Location/Type
Mon 06:25:37 PM 34.7003 -112.4350 305° West 161 185 7,100  Level Los Angeles Center
Mon 06:26:43 PM 34.7042 -112.5044 274° West 173 199 8,600 1,219 Climbing Albuquerque Center
Mon 06:27:45 PM 34.7086 -112.5647 275° West 179 206 9,700 1,220 Climbing Albuquerque Center
Mon 06:28:46 PM 34.7103 -112.6317 272° West 192 221 11,100 1,415 Climbing Albuquerque Center
Mon 06:29:00 PM 34.7138 -112.8984 276° West  Level FlightAware Approximate
Mon 06:29:48 PM 34.7156 -112.7000 275° West 201 231 12,600  Level Albuquerque Center
Mon 06:30:49 PM 34.7217 -112.7664 276° West 200 230 13,700 1,073 Climbing Albuquerque Center
Mon 06:31:51 PM 34.7256 -112.8347 274° West 203 234 14,800 1,024 Climbing Albuquerque Center
Mon 06:32:52 PM 34.7300 -112.9061 274° West 209 241 15,800 918 Climbing Albuquerque Center
Mon 06:34:54 PM 34.7417 -113.0700 275° West 225 259 17,600 880 Climbing Los Angeles Center
Mon 06:35:56 PM 34.7450 -113.1486 273° West 232 267 18,500 726 Climbing Los Angeles Center
Mon 06:36:58 PM 34.7483 -113.2264 273° West 232 267 19,100 629 Climbing Los Angeles Center
Mon 06:38:00 PM 34.7544 -113.3072 275° West 239 275 19,800 435 Climbing Los Angeles Center
Mon 06:39:02 PM 34.7569 -113.3856 272° West 234 269 20,000 146 Climbing Albuquerque Center
Mon 06:40:03 PM 34.7592 -113.4675 272° West 240 276 20,100  Climbing Albuquerque Center
Mon 06:41:04 PM 34.7586 -113.5544 270° West 252 290 20,000 -49 Descending Albuquerque Center
Mon 06:42:06 PM 34.7619 -113.6578 272° West 256 295 20,000  Level Albuquerque Center
Mon 06:43:07 PM 34.7644 -113.7444 272° West 257 296 20,000 -49 Level Albuquerque Center
Mon 06:44:09 PM 34.7683 -113.8317 273° West 259 298 19,900  Descending Albuquerque Center
Mon 06:45:10 PM 34.7725 -113.9206 273° West 262 302 20,000 98 Climbing Albuquerque Center
Mon 06:46:12 PM 34.7742 -114.0183 271° West 260 299 20,100 47 Climbing Albuquerque Center
Mon 06:47:18 PM 34.7764 -114.1064 272° West 261 300 20,100  Level Los Angeles Center
Mon 06:48:20 PM 34.7808 -114.1950 274° West 262 302 20,100 -48 Level Los Angeles Center
Mon 06:49:22 PM 34.7850 -114.2847 273° West 264 304 20,000 -97 Descending Los Angeles Center
Mon 06:50:24 PM 34.7814 -114.3917 268° West 264 304 19,900 48 Descending Los Angeles Center
Mon 06:51:26 PM 34.7803 -114.4819 269° West 265 305 20,100 97 Climbing Los Angeles Center
Mon 06:52:28 PM 34.7789 -114.5711 269° West 264 304 20,100  Level Los Angeles Center
Mon 06:53:30 PM 34.7744 -114.6600 267° West 263 303 20,100  Level Los Angeles Center
Mon 06:54:32 PM 34.7742 -114.7500 270° West 263 303 20,100  Level Los Angeles Center
Mon 06:55:34 PM 34.7786 -114.8386 274° West 263 303 20,100 -48 Level Los Angeles Center
Mon 06:56:36 PM 34.7808 -114.9286 272° West 265 305 20,000 -49 Descending Los Angeles Center
Mon 06:57:37 PM 34.7836 -115.0353 272° West 262 302 20,000  Level Los Angeles Center
Mon 06:58:39 PM 34.7861 -115.1242 272° West 262 302 20,000 48 Level Los Angeles Center
Mon 06:59:41 PM 34.7856 -115.2128 270° West 262 302 20,100 48 Climbing Los Angeles Center
Mon 07:00:43 PM 34.7878 -115.3025 272° West 260 299 20,100 -97 Level Los Angeles Center
Mon 07:01:45 PM 34.7917 -115.3972 273° West 272 313 19,900 -97 Descending Los Angeles Center
Mon 07:02:47 PM 34.7908 -115.4850 269° West 267 307 19,900 95 Level Los Angeles Center
Mon 07:03:51 PM 34.7906 -115.5683 270° West 257 296 20,100 48 Climbing Los Angeles Center
Mon 07:04:51 PM 34.7942 -115.6628 273° West 262 302 20,000 -49 Descending Los Angeles Center
Mon 07:05:53 PM 34.7967 -115.7692 272° West 263 303 20,000  Level Los Angeles Center
Mon 07:06:55 PM 34.7978 -115.8575 271° West 263 303 20,000 -48 Level Los Angeles Center
Mon 07:07:57 PM 34.7967 -115.9475 269° West 264 304 19,900  Descending Los Angeles Center
Mon 07:08:59 PM 34.8014 -116.0383 274° West 268 308 20,000 97 Climbing Los Angeles Center
Mon 07:10:01 PM 34.8008 -116.1283 270° West 266 306 20,100 -48 Climbing Los Angeles Center
Mon 07:11:03 PM 34.7994 -116.2178 269° West 266 306 19,900 -532 Descending Los Angeles Center
Mon 07:12:05 PM 34.8347 -116.3192 293° West 279 321 19,000 -774 Descending Los Angeles Center
Mon 07:13:07 PM 34.8322 -116.4081 268° West 261 300 18,300 -488 Descending Los Angeles Center
Mon 07:14:08 PM 34.8244 -116.5006 264° West 271 312 18,000 -390 Descending Los Angeles Center
Mon 07:15:10 PM 34.8161 -116.5900 264° West 267 307 17,500 -484 Descending Los Angeles Center
Mon 07:16:12 PM 34.8158 -116.6794 270° West 266 306 17,000 -339 Descending Los Angeles Center
Mon 07:17:14 PM 34.8153 -116.7644 270° West 257 296 16,800 -48 Descending Los Angeles Center
Mon 07:18:16 PM 34.8139 -116.8472 269° West 249 287 16,900 97 Climbing Los Angeles Center
Mon 07:19:18 PM 34.8081 -116.9506 266° West 254 292 17,000 48 Climbing Los Angeles Center
Mon 07:20:20 PM 34.7989 -117.0381 263° West 257 296 17,000  Level Los Angeles Center
Mon 07:21:21 PM 34.7897 -117.1267 263° West 262 302 17,000  Level Los Angeles Center
Mon 07:22:23 PM 34.7786 -117.2142 261° West 262 302 17,000 -290 Level Los Angeles Center
Mon 07:23:25 PM 34.7700 -117.2994 263° West 254 292 16,400 -484 Descending Los Angeles Center
Mon 07:24:27 PM 34.7603 -117.3825 262° West 250 288 16,000 -726 Descending Los Angeles Center
Mon 07:25:29 PM 34.7500 -117.4692 262° West 257 296 14,900 -1,024 Descending Los Angeles Center
Mon 07:26:30 PM 34.7256 -117.5678 253° West 254 292 13,900 -800 Descending Los Angeles Center
Mon 07:28:00 PM 34.6797 -117.6785 243° Southwest  Level FlightAware Approximate
Mon 07:34:14 PM 34.5667 -118.1667 151° Southeast 273 314 7,900  Level Southern California TRACON
Mon 07:35:00 PM 34.5228 -118.2211 239° Southwest  Level FlightAware Approximate
Mon 07:35:14 PM 34.5333 -118.2167 231° Southwest 187 215 8,000  Level Southern California TRACON
Mon 07:36:00 PM 34.4761 -118.2797 236° Southwest  Level FlightAware Approximate
Mon 07:36:20 PM 34.4833 -118.2833 228° Southwest 213 245 8,100  Level Southern California TRACON
Mon 07:37:00 PM 34.4381 -118.3481 236° Southwest  Level FlightAware Approximate
Mon 07:37:20 PM 34.4500 -118.3500 239° Southwest 239 275 8,100  Level Southern California TRACON
Mon 07:38:00 PM 34.4002 -118.4164 236° Southwest  Level FlightAware Approximate
Mon 07:38:20 PM 34.4000 -118.4167 228° Southwest 248 285 8,100  Level Southern California TRACON
Mon 07:39:00 PM 34.3430 -118.3731 151° Southeast  Level FlightAware Approximate
Mon 07:39:15 PM 34.3500 -118.3833 151° Southeast 267 307 8,000  Level Southern California TRACON
Mon 07:40:21 PM 34.2667 -118.3333 154° Southeast 262 302 7,600 -619 Descending Southern California TRACON
Mon 07:41:21 PM 34.2167 -118.3000 151° Southeast 258 297 6,700 -800 Descending Southern California TRACON
Mon 07:42:21 PM 34.1500 -118.2667 158° South 215 247 6,000 -650 Descending Southern California TRACON
Mon 07:43:21 PM 34.1000 -118.2333 151° Southeast 208 239 5,400 -626 Descending Southern California TRACON
Mon 07:44:16 PM 34.0667 -118.2167 158° South 203 234 4,800 -744 Descending Southern California TRACON
Mon 07:45:22 PM 34.0000 -118.1833 157° South 197 227 3,900 -700 Descending Southern California TRACON
Mon 07:46:16 PM 33.9667 -118.2333 231° Southwest 181 208 3,400 -684 Descending Southern California TRACON
Mon 07:47:16 PM 33.9667 -118.2833 270° West 183 211 2,600 -893 Descending Southern California TRACON
Mon 07:48:17 PM 33.9667 -118.3333 270° West 147 169 1,600 -893 Descending Southern California TRACON
Mon 07:49:17 PM 33.9500 -118.3833 248° West 106 122 800 -800 Descending Southern California TRACON
Mon 07:51:00 PM 33.9333 -118.4000 228° Southwest  Level FlightAware Approximate

Login

Don't have an account? Register now (free) for customized features, flight alerts, and more!